createdAt,value
2018-02-20T00:01:44.071Z,54.08
2018-02-20T00:04:11.642Z,55.22
2018-02-20T00:06:40.067Z,50.65
2018-02-20T00:09:07.614Z,51.00
2018-02-20T00:11:35.212Z,57.62
2018-02-20T00:14:02.767Z,51.63
2018-02-20T00:16:30.342Z,56.00
2018-02-20T00:18:57.942Z,47.83
2018-02-20T00:21:25.498Z,50.97
2018-02-20T00:23:53.082Z,61.13
2018-02-20T00:26:20.652Z,48.00
2018-02-20T00:31:22.245Z,50.72
2018-02-20T00:33:49.867Z,58.78
2018-02-20T00:36:17.431Z,56.47
2018-02-20T00:38:45.043Z,48.65
2018-02-20T00:41:13.555Z,50.47
2018-02-20T00:43:41.255Z,48.25
2018-02-20T00:46:08.904Z,52.15
2018-02-20T00:48:36.451Z,50.85
2018-02-20T00:51:04.051Z,60.58
2018-02-20T00:53:32.394Z,51.97
2018-02-20T00:55:59.986Z,57.33
2018-02-20T00:58:28.303Z,61.10
2018-02-20T01:00:55.895Z,56.08
2018-02-20T01:03:23.480Z,49.67
2018-02-20T01:05:51.835Z,55.83
2018-02-20T01:08:20.164Z,52.62
2018-02-20T01:10:47.780Z,55.33
2018-02-20T01:13:15.331Z,51.35
2018-02-20T01:15:42.931Z,55.03
2018-02-20T01:18:10.482Z,55.05
2018-02-20T01:20:38.043Z,56.78
2018-02-20T01:23:05.735Z,50.72
2018-02-20T01:25:33.316Z,54.20
2018-02-20T01:28:00.898Z,51.42
2018-02-20T01:30:29.339Z,55.72
2018-02-20T01:32:56.927Z,51.45
2018-02-20T01:35:24.475Z,51.17
2018-02-20T01:37:52.075Z,49.72
2018-02-20T01:40:19.826Z,55.90
2018-02-20T01:42:48.234Z,51.35
2018-02-20T01:45:15.827Z,53.80
2018-02-20T01:47:43.378Z,52.33
2018-02-20T01:50:10.976Z,58.03
2018-02-20T01:52:39.512Z,63.78
2018-02-20T01:55:07.104Z,55.30
2018-02-20T01:57:34.690Z,45.63
2018-02-20T02:00:02.406Z,46.35
2018-02-20T02:02:29.966Z,58.13
2018-02-20T02:04:57.526Z,51.50
2018-02-20T02:07:25.121Z,50.63
2018-02-20T02:09:53.467Z,58.15
2018-02-20T02:12:21.070Z,57.90
2018-02-20T02:14:48.625Z,55.80
2018-02-20T02:17:16.286Z,57.42
2018-02-20T02:19:43.895Z,56.65
2018-02-20T02:22:11.454Z,61.25
2018-02-20T02:24:39.050Z,59.65
2018-02-20T02:27:07.391Z,67.37
2018-02-20T02:29:35.103Z,62.67
2018-02-20T02:32:02.682Z,58.55
2018-02-20T02:34:30.291Z,63.67
2018-02-20T02:36:57.850Z,55.80
2018-02-20T02:39:26.191Z,57.53
2018-02-20T02:41:53.935Z,61.33
2018-02-20T02:44:21.498Z,60.97
2018-02-20T02:46:49.149Z,59.72
2018-02-20T02:49:16.719Z,62.58
2018-02-20T02:51:44.403Z,58.55
2018-02-20T02:54:11.958Z,65.97
2018-02-20T02:56:39.519Z,66.20
2018-02-20T02:59:07.103Z,60.60
2018-02-20T03:01:35.575Z,67.30
2018-02-20T03:04:03.178Z,61.13
2018-02-20T03:06:30.736Z,61.20
2018-02-20T03:08:58.326Z,59.22
2018-02-20T03:11:25.883Z,63.58
2018-02-20T03:13:53.474Z,57.65
2018-02-20T03:16:21.020Z,63.33
2018-02-20T03:18:48.775Z,65.97
2018-02-20T03:21:16.335Z,75.60
2018-02-20T03:23:43.903Z,65.07
2018-02-20T03:26:11.495Z,65.18
2018-02-20T03:28:39.066Z,65.10
2018-02-20T03:31:06.655Z,68.97
2018-02-20T03:33:34.211Z,65.60
2018-02-20T03:36:01.797Z,64.05
2018-02-20T03:38:29.337Z,63.42
2018-02-20T03:40:57.018Z,64.90
2018-02-20T03:43:25.356Z,70.07
2018-02-20T03:45:52.942Z,62.70
2018-02-20T03:48:20.523Z,66.53
2018-02-20T03:50:48.838Z,68.68
2018-02-20T03:53:16.427Z,69.80
2018-02-20T03:55:43.992Z,59.88
2018-02-20T03:58:11.707Z,66.15
2018-02-20T04:00:39.326Z,60.60
2018-02-20T04:03:06.914Z,79.53
2018-02-20T04:05:34.478Z,63.22
2018-02-20T04:08:02.083Z,66.55
2018-02-20T04:10:29.643Z,66.10
2018-02-20T04:12:57.207Z,61.15
2018-02-20T04:15:24.804Z,60.28
2018-02-20T04:17:52.360Z,56.78
2018-02-20T04:20:20.850Z,57.90
2018-02-20T04:22:48.406Z,58.95
2018-02-20T04:25:16.019Z,64.30
2018-02-20T04:27:43.631Z,58.38
2018-02-20T04:30:11.231Z,74.85
2018-02-20T04:32:38.850Z,68.00
2018-02-20T04:35:06.413Z,60.22
2018-02-20T04:37:34.019Z,57.83
2018-02-20T04:40:02.354Z,60.67
2018-02-20T04:42:30.088Z,61.88
2018-02-20T04:44:58.434Z,63.80
2018-02-20T04:47:26.027Z,54.88
2018-02-20T04:49:54.350Z,59.90
2018-02-20T04:52:21.943Z,58.05
2018-02-20T04:54:50.306Z,63.87
2018-02-20T04:57:19.367Z,53.53
2018-02-20T04:59:46.950Z,62.28
2018-02-20T05:02:14.522Z,54.47
2018-02-20T05:04:42.108Z,58.40
2018-02-20T05:07:10.432Z,63.58
2018-02-20T05:09:38.019Z,62.38
2018-02-20T05:12:05.582Z,63.55
2018-02-20T05:14:33.314Z,59.72
2018-02-20T05:17:00.873Z,67.70
2018-02-20T05:19:28.433Z,65.78
2018-02-20T05:21:56.181Z,66.50
2018-02-20T05:24:23.786Z,65.72
2018-02-20T05:26:52.176Z,63.10
2018-02-20T05:29:20.520Z,57.88
2018-02-20T05:31:49.719Z,65.53
2018-02-20T05:34:17.282Z,61.78
2018-02-20T05:36:44.843Z,62.33
2018-02-20T05:39:12.419Z,64.93
2018-02-20T05:41:40.745Z,54.25
2018-02-20T05:44:08.348Z,60.12
2018-02-20T05:46:36.970Z,59.97
2018-02-20T05:49:04.570Z,55.65
2018-02-20T05:51:32.165Z,59.50
2018-02-20T05:54:00.527Z,57.72
2018-02-20T05:56:28.954Z,53.45
2018-02-20T05:58:56.564Z,59.72
2018-02-20T06:01:24.890Z,54.97
2018-02-20T06:03:52.546Z,65.68
2018-02-20T06:06:20.848Z,61.83
2018-02-20T06:08:48.422Z,61.80
2018-02-20T06:11:16.034Z,63.70
2018-02-20T06:13:43.602Z,63.60
2018-02-20T06:16:11.211Z,60.55
2018-02-20T06:18:39.562Z,62.20
2018-02-20T06:21:07.926Z,60.70
2018-02-20T06:23:35.602Z,55.67
2018-02-20T06:26:03.946Z,58.47
2018-02-20T06:28:31.506Z,68.60
2018-02-20T06:30:59.064Z,62.50
2018-02-20T06:33:26.715Z,55.88
2018-02-20T06:35:54.307Z,62.25
2018-02-20T06:38:21.889Z,63.58
2018-02-20T06:40:49.474Z,53.25
2018-02-20T06:43:17.062Z,52.30
2018-02-20T06:45:44.916Z,47.75
2018-02-20T06:48:12.615Z,47.30
2018-02-20T06:50:40.298Z,37.17
2018-02-20T06:53:07.846Z,34.85
2018-02-20T06:55:35.538Z,36.28
2018-02-20T06:58:03.130Z,30.27
2018-02-20T07:00:30.749Z,36.33
2018-02-20T07:02:59.174Z,39.30
2018-02-20T07:05:26.839Z,35.22
2018-02-20T07:07:54.411Z,35.40
2018-02-20T07:10:22.027Z,40.40
2018-02-20T07:12:49.676Z,29.63
2018-02-20T07:15:17.311Z,29.12
2018-02-20T07:17:44.902Z,28.77
2018-02-20T07:20:12.459Z,25.80
2018-02-20T07:22:40.055Z,24.35
2018-02-20T07:25:07.617Z,24.85
2018-02-20T07:27:35.301Z,25.20
2018-02-20T07:30:02.883Z,23.98
2018-02-20T07:32:31.378Z,25.85
2018-02-20T07:34:58.952Z,22.67
2018-02-20T07:37:26.567Z,28.87
2018-02-20T07:39:55.047Z,22.02
2018-02-20T07:42:23.417Z,20.45
2018-02-20T07:44:51.783Z,24.17
2018-02-20T07:47:19.367Z,23.27
2018-02-20T07:49:47.736Z,22.77
2018-02-20T07:52:16.063Z,22.00
2018-02-20T07:54:43.623Z,22.90
2018-02-20T07:57:11.215Z,26.17
2018-02-20T07:59:38.790Z,24.15
2018-02-20T08:02:07.147Z,28.33
2018-02-20T08:04:34.710Z,25.37
2018-02-20T08:07:02.314Z,29.75
2018-02-20T08:09:29.914Z,30.52
2018-02-20T08:11:57.499Z,29.33
2018-02-20T08:14:25.852Z,29.33
2018-02-20T08:16:53.463Z,29.35
2018-02-20T08:19:21.056Z,29.75
2018-02-20T08:21:48.642Z,32.28
2018-02-20T08:24:16.354Z,29.45
2018-02-20T08:26:43.922Z,27.25
2018-02-20T08:29:11.516Z,30.85
2018-02-20T08:31:39.084Z,33.15
2018-02-20T08:34:06.695Z,31.80
2018-02-20T08:36:34.279Z,31.15
2018-02-20T08:39:01.847Z,39.85
2018-02-20T08:41:29.438Z,40.53
2018-02-20T08:43:57.766Z,44.97
2018-02-20T08:46:25.352Z,41.17
2018-02-20T08:48:52.914Z,44.85
2018-02-20T08:51:20.670Z,38.15
2018-02-20T08:53:48.230Z,34.95
2018-02-20T08:56:15.822Z,38.40
2018-02-20T08:58:43.382Z,45.72
2018-02-20T09:01:10.983Z,41.45
2018-02-20T09:03:38.529Z,44.00
2018-02-20T09:06:06.116Z,37.80
2018-02-20T09:08:33.711Z,35.00
2018-02-20T09:11:02.046Z,40.78
2018-02-20T09:13:29.643Z,33.80
2018-02-20T09:15:57.979Z,33.40
2018-02-20T09:18:25.582Z,34.10
2018-02-20T09:20:53.275Z,36.55
2018-02-20T09:23:20.883Z,44.92
2018-02-20T09:25:48.435Z,45.38
2018-02-20T09:28:16.047Z,50.92
2018-02-20T09:30:43.603Z,47.70
2018-02-20T09:33:11.211Z,45.15
2018-02-20T09:35:38.795Z,50.47
2018-02-20T09:38:07.122Z,48.63
2018-02-20T09:40:34.732Z,54.38
2018-02-20T09:43:03.062Z,63.10
2018-02-20T09:45:30.650Z,70.00
2018-02-20T09:47:59.045Z,56.00
2018-02-20T09:50:27.422Z,65.72
2018-02-20T09:52:54.986Z,54.33
2018-02-20T09:55:22.595Z,71.10
2018-02-20T09:57:50.186Z,56.55
2018-02-20T10:00:18.561Z,59.78
2018-02-20T10:02:46.936Z,60.55
2018-02-20T10:05:15.278Z,63.83
2018-02-20T10:07:42.866Z,61.90
2018-02-20T10:10:10.422Z,59.88
2018-02-20T10:12:38.019Z,74.25
2018-02-20T10:15:05.591Z,63.53
2018-02-20T10:17:33.232Z,61.85
2018-02-20T10:20:00.893Z,58.25
2018-02-20T10:22:28.423Z,59.83
2018-02-20T10:24:56.006Z,59.15
2018-02-20T10:27:23.575Z,53.58
2018-02-20T10:29:51.178Z,59.72
2018-02-20T10:32:18.731Z,59.60
2018-02-20T10:34:46.290Z,61.05
2018-02-20T10:37:13.882Z,61.20
2018-02-20T10:39:42.207Z,54.85
2018-02-20T10:42:09.913Z,61.30
2018-02-20T10:44:38.238Z,53.00
2018-02-20T10:47:05.840Z,47.53
2018-02-20T10:49:33.414Z,49.05
2018-02-20T10:52:01.824Z,45.47
2018-02-20T10:54:29.406Z,41.47
2018-02-20T10:56:56.992Z,38.97
2018-02-20T10:59:24.574Z,40.30
2018-02-20T11:01:52.967Z,34.88
2018-02-20T11:04:20.670Z,32.22
2018-02-20T11:06:48.233Z,35.63
2018-02-20T11:09:15.790Z,34.60
2018-02-20T11:11:43.411Z,36.50
2018-02-20T11:14:10.974Z,35.50
2018-02-20T11:16:38.571Z,36.03
2018-02-20T11:19:06.127Z,35.17
2018-02-20T11:21:33.722Z,36.53
2018-02-20T11:24:02.054Z,38.38
2018-02-20T11:26:29.644Z,35.35
2018-02-20T11:28:57.205Z,45.08
2018-02-20T11:31:24.807Z,33.53
2018-02-20T11:33:52.366Z,32.63
2018-02-20T11:36:19.931Z,38.70
2018-02-20T11:38:47.512Z,31.62
2018-02-20T11:41:15.100Z,35.22
2018-02-20T11:43:43.488Z,35.55
2018-02-20T11:46:11.825Z,42.62
2018-02-20T11:48:39.557Z,47.15
2018-02-20T11:51:07.111Z,49.80
2018-02-20T11:53:34.674Z,44.85
2018-02-20T11:56:02.275Z,38.00
2018-02-20T11:58:29.859Z,38.70
2018-02-20T12:00:58.359Z,36.75
2018-02-20T12:03:25.932Z,35.08
2018-02-20T12:05:53.523Z,39.92
2018-02-20T12:08:21.092Z,41.78
2018-02-20T12:10:48.674Z,38.15
2018-02-20T12:13:17.081Z,43.42
2018-02-20T12:15:44.763Z,43.72
2018-02-20T12:18:12.335Z,48.53
2018-02-20T12:20:39.979Z,42.72
2018-02-20T12:23:07.570Z,52.20
2018-02-20T12:25:35.210Z,47.40
2018-02-20T12:28:02.811Z,39.70
2018-02-20T12:30:31.163Z,46.55
2018-02-20T12:32:58.735Z,42.13
2018-02-20T12:35:27.084Z,45.00
2018-02-20T12:37:54.670Z,45.22
2018-02-20T12:40:23.010Z,46.67
2018-02-20T12:42:50.617Z,50.08
2018-02-20T12:45:19.201Z,46.78
2018-02-20T12:47:47.563Z,50.60
2018-02-20T12:50:15.157Z,47.25
2018-02-20T12:52:42.922Z,47.67
2018-02-20T12:55:10.520Z,52.92
2018-02-20T12:57:38.090Z,45.47
2018-02-20T13:00:07.166Z,48.53
2018-02-20T13:02:34.762Z,52.20
2018-02-20T13:05:03.146Z,55.03
2018-02-20T13:07:30.728Z,65.10
2018-02-20T13:09:58.310Z,56.03
2018-02-20T13:12:26.778Z,60.45
2018-02-20T13:14:54.491Z,64.80
2018-02-20T13:17:22.095Z,56.78
2018-02-20T13:19:49.680Z,56.45
2018-02-20T13:22:17.338Z,62.58
2018-02-20T13:24:44.950Z,60.33
2018-02-20T13:27:12.527Z,61.95
2018-02-20T13:29:40.109Z,59.30
2018-02-20T13:32:07.719Z,60.33
2018-02-20T13:34:36.214Z,61.60
2018-02-20T13:37:03.784Z,59.90
2018-02-20T13:39:31.408Z,58.65
2018-02-20T13:41:59.765Z,68.35
2018-02-20T13:44:27.334Z,63.70
2018-02-20T13:46:54.922Z,61.33
2018-02-20T13:49:23.252Z,55.58
2018-02-20T13:51:50.867Z,67.22
2018-02-20T13:54:18.579Z,59.40
2018-02-20T13:56:46.162Z,59.70
2018-02-20T13:59:13.790Z,60.20
2018-02-20T14:01:41.383Z,61.95
2018-02-20T14:04:09.771Z,55.83
2018-02-20T14:06:38.387Z,47.97
2018-02-20T14:09:06.002Z,55.25
2018-02-20T14:11:34.319Z,52.55
2018-02-20T14:14:01.908Z,61.92
2018-02-20T14:16:29.650Z,63.78
2018-02-20T14:18:57.242Z,53.85
2018-02-20T14:21:24.804Z,57.72
2018-02-20T14:23:52.424Z,54.60
2018-02-20T14:26:19.987Z,57.38
2018-02-20T14:28:47.583Z,47.65
2018-02-20T14:31:15.147Z,55.17
2018-02-20T14:33:43.571Z,52.10
2018-02-20T14:36:11.179Z,60.72
2018-02-20T14:38:38.780Z,54.00
2018-02-20T14:41:06.339Z,60.38
2018-02-20T14:43:33.962Z,51.95
2018-02-20T14:46:02.299Z,59.72
2018-02-20T14:48:29.926Z,53.53
2018-02-20T14:50:57.482Z,57.85
2018-02-20T14:53:25.087Z,52.85
2018-02-20T14:55:52.690Z,47.13
2018-02-20T14:58:21.021Z,51.00
2018-02-20T15:00:48.607Z,50.17
2018-02-20T15:03:16.324Z,42.62
2018-02-20T15:05:44.031Z,38.00
2018-02-20T15:08:12.363Z,41.63
2018-02-20T15:10:39.975Z,47.95
2018-02-20T15:13:08.309Z,44.22
2018-02-20T15:15:35.942Z,44.78
2018-02-20T15:18:03.515Z,48.83
2018-02-20T15:20:31.127Z,41.92
2018-02-20T15:22:59.491Z,39.83
2018-02-20T15:25:27.062Z,41.67
2018-02-20T15:27:55.446Z,45.70
2018-02-20T15:30:23.819Z,45.08
2018-02-20T15:32:52.183Z,58.97
2018-02-20T15:35:19.767Z,52.08
2018-02-20T15:37:48.126Z,53.28
2018-02-20T15:40:16.455Z,49.92
2018-02-20T15:42:44.035Z,50.78
2018-02-20T15:45:11.631Z,50.35
2018-02-20T15:47:39.951Z,46.85
2018-02-20T15:50:07.547Z,51.15
2018-02-20T15:52:35.132Z,45.63
2018-02-20T15:55:03.542Z,49.60
2018-02-20T15:57:31.107Z,50.10
2018-02-20T15:59:58.727Z,50.95
2018-02-20T16:02:27.102Z,50.05
2018-02-20T16:04:55.443Z,52.75
2018-02-20T16:07:24.554Z,50.10
2018-02-20T16:09:53.635Z,52.15
2018-02-20T16:12:22.135Z,51.53
2018-02-20T16:14:50.471Z,56.47
2018-02-20T16:17:18.088Z,59.55
2018-02-20T16:19:46.616Z,55.83
2018-02-20T16:22:14.247Z,50.30
2018-02-20T16:24:41.819Z,51.33
2018-02-20T16:27:09.386Z,52.75
2018-02-20T16:29:36.987Z,48.28
2018-02-20T16:32:05.400Z,49.85
2018-02-20T16:34:33.005Z,48.58
2018-02-20T16:37:00.591Z,63.05
2018-02-20T16:39:29.030Z,50.67
2018-02-20T16:41:56.759Z,54.58
2018-02-20T16:44:24.340Z,56.10
2018-02-20T16:46:51.935Z,58.45
2018-02-20T16:49:19.497Z,50.35
2018-02-20T16:51:47.078Z,50.08
2018-02-20T16:54:14.642Z,47.08
2018-02-20T16:56:42.244Z,50.85
2018-02-20T16:59:09.840Z,52.65
2018-02-20T17:01:38.210Z,53.97
2018-02-20T17:04:05.791Z,54.15
2018-02-20T17:06:33.495Z,54.35
2018-02-20T17:09:01.090Z,53.75
2018-02-20T17:11:28.659Z,50.30
2018-02-20T17:13:57.110Z,58.55
2018-02-20T17:16:25.555Z,51.63
2018-02-20T17:18:53.182Z,47.20
2018-02-20T17:21:21.723Z,51.60
2018-02-20T17:23:49.315Z,46.55
2018-02-20T17:26:17.644Z,54.75
2018-02-20T17:28:45.256Z,55.53
2018-02-20T17:31:13.581Z,59.88
2018-02-20T17:33:41.155Z,53.28
2018-02-20T17:36:08.750Z,57.50
2018-02-20T17:38:36.337Z,54.97
2018-02-20T17:41:03.970Z,48.95
2018-02-20T17:43:32.435Z,49.35
2018-02-20T17:46:00.789Z,50.92
2018-02-20T17:48:28.413Z,50.17
2018-02-20T17:50:56.035Z,44.70
2018-02-20T17:53:23.638Z,46.58
2018-02-20T17:55:51.321Z,51.67
2018-02-20T17:58:18.952Z,48.47
2018-02-20T18:00:46.508Z,53.33
2018-02-20T18:03:14.279Z,46.88
2018-02-20T18:05:41.866Z,53.83
2018-02-20T18:08:09.496Z,50.78
2018-02-20T18:10:37.079Z,52.20
2018-02-20T18:13:04.684Z,58.00
2018-02-20T18:15:33.195Z,55.85
2018-02-20T18:18:00.795Z,54.80
2018-02-20T18:20:28.390Z,55.30
2018-02-20T18:25:34.719Z,62.83
2018-02-20T18:28:02.298Z,63.08
2018-02-20T18:30:29.927Z,60.15
2018-02-20T18:32:57.544Z,52.13
2018-02-20T18:35:25.928Z,58.67
2018-02-20T18:37:53.509Z,54.38
2018-02-20T18:40:21.179Z,61.80
2018-02-20T18:42:48.777Z,56.33
2018-02-20T18:45:17.148Z,56.03
2018-02-20T18:47:44.759Z,52.60
2018-02-20T18:50:12.335Z,57.45
2018-02-20T18:52:39.928Z,56.67
2018-02-20T18:55:07.491Z,55.55
2018-02-20T18:57:35.120Z,52.70
2018-02-20T19:00:02.831Z,54.65
2018-02-20T19:02:31.195Z,51.47
2018-02-20T19:04:59.528Z,57.08
2018-02-20T19:07:27.105Z,52.83
2018-02-20T19:09:54.702Z,58.92
2018-02-20T19:12:23.107Z,55.58
2018-02-20T19:14:50.704Z,62.85
2018-02-20T19:17:18.353Z,53.72
2018-02-20T19:19:46.043Z,52.80
2018-02-20T19:22:13.620Z,60.40
2018-02-20T19:27:16.590Z,61.22
2018-02-20T19:29:44.235Z,59.67
2018-02-20T19:32:11.838Z,61.92
2018-02-20T19:34:40.207Z,61.90
2018-02-20T19:37:08.552Z,56.75
2018-02-20T19:39:36.133Z,59.25
2018-02-20T19:42:03.886Z,67.10
2018-02-20T19:44:31.607Z,58.15
2018-02-20T19:46:59.235Z,55.03
2018-02-20T19:49:27.785Z,55.97
2018-02-20T19:51:55.371Z,65.47
2018-02-20T19:54:23.744Z,64.00
2018-02-20T19:56:52.211Z,61.70
2018-02-20T19:59:19.987Z,60.22
2018-02-20T20:01:48.338Z,56.05
2018-02-20T20:04:15.948Z,59.50
2018-02-20T20:06:43.515Z,63.47
2018-02-20T20:09:11.119Z,60.35
2018-02-20T20:11:38.727Z,62.10
2018-02-20T20:14:06.297Z,57.28
2018-02-20T20:16:33.930Z,59.20
2018-02-20T20:19:02.304Z,55.78
2018-02-20T20:21:29.878Z,69.45
2018-02-20T20:23:58.199Z,65.30
2018-02-20T20:26:25.788Z,64.35
2018-02-20T20:28:53.364Z,62.03
2018-02-20T20:31:21.771Z,60.60
2018-02-20T20:33:49.355Z,67.07
2018-02-20T20:36:16.932Z,56.70
2018-02-20T20:38:44.599Z,56.95
2018-02-20T20:41:12.190Z,69.07
2018-02-20T20:43:39.799Z,71.40
2018-02-20T20:46:07.360Z,66.95
2018-02-20T20:48:35.045Z,60.08
2018-02-20T20:51:03.379Z,57.30
2018-02-20T20:53:30.988Z,72.05
2018-02-20T20:55:59.320Z,61.17
2018-02-20T20:58:26.923Z,69.87
2018-02-20T21:00:55.287Z,69.47
2018-02-20T21:03:22.864Z,72.12
2018-02-20T21:05:51.215Z,72.60
2018-02-20T21:08:18.783Z,74.15
2018-02-20T21:10:46.395Z,62.70
2018-02-20T21:13:13.966Z,65.70
2018-02-20T21:15:41.570Z,74.05
2018-02-20T21:18:10.050Z,68.87
2018-02-20T21:20:38.525Z,66.00
2018-02-20T21:23:06.899Z,73.80
2018-02-20T21:25:34.486Z,65.75
2018-02-20T21:28:02.275Z,70.85
2018-02-20T21:30:29.847Z,68.90
2018-02-20T21:32:57.514Z,62.40
2018-02-20T21:35:25.099Z,70.28
2018-02-20T21:37:52.719Z,64.35
2018-02-20T21:40:20.379Z,60.75
2018-02-20T21:42:47.984Z,63.67
2018-02-20T21:45:16.343Z,71.62
2018-02-20T21:47:43.974Z,61.40
2018-02-20T21:50:11.564Z,63.63
2018-02-20T21:52:39.176Z,59.97
2018-02-20T21:55:06.787Z,70.18
2018-02-20T21:57:34.446Z,62.15
2018-02-20T22:00:02.068Z,66.95
2018-02-20T22:02:29.814Z,64.93
2018-02-20T22:04:57.484Z,64.37
2018-02-20T22:07:25.100Z,63.40
2018-02-20T22:09:53.484Z,64.95
2018-02-20T22:12:21.843Z,61.80
2018-02-20T22:14:49.439Z,66.60
2018-02-20T22:17:17.104Z,68.25
2018-02-20T22:19:44.695Z,57.70
2018-02-20T22:22:12.403Z,66.15
2018-02-20T22:24:40.827Z,69.40
2018-02-20T22:27:08.467Z,67.12
2018-02-20T22:29:36.073Z,66.57
2018-02-20T22:32:03.644Z,75.55
2018-02-20T22:34:31.253Z,78.15
2018-02-20T22:36:58.867Z,64.30
2018-02-20T22:39:26.440Z,67.68
2018-02-20T22:41:54.922Z,70.62
2018-02-20T22:44:23.329Z,64.30
2018-02-20T22:46:50.966Z,66.93
2018-02-20T22:49:18.553Z,78.47
2018-02-20T22:51:46.127Z,63.72
2018-02-20T22:54:13.836Z,63.72
2018-02-20T22:56:42.216Z,63.53
2018-02-20T22:59:10.726Z,64.10
2018-02-20T23:01:38.310Z,65.28
2018-02-20T23:04:05.962Z,64.15
2018-02-20T23:06:33.547Z,65.87
2018-02-20T23:09:01.179Z,77.50
2018-02-20T23:11:40.671Z,70.95
2018-02-20T23:14:09.060Z,67.68
2018-02-20T23:16:36.663Z,69.25
2018-02-20T23:19:04.259Z,67.22
2018-02-20T23:21:32.647Z,73.75
2018-02-20T23:24:01.035Z,67.82
2018-02-20T23:26:28.867Z,68.12
2018-02-20T23:28:56.523Z,66.55
2018-02-20T23:31:24.091Z,64.47
2018-02-20T23:33:51.812Z,68.20
2018-02-20T23:36:19.413Z,61.80
2018-02-20T23:38:46.983Z,72.82
2018-02-20T23:41:15.371Z,69.82
2018-02-20T23:43:42.932Z,52.60
2018-02-20T23:46:10.513Z,59.70
2018-02-20T23:48:38.221Z,60.75
2018-02-20T23:51:11.447Z,60.95
2018-02-20T23:53:39.101Z,59.08
2018-02-20T23:56:06.659Z,58.25
2018-02-20T23:58:35.011Z,61.20
